Skip Navigation Linkwww.weather.gov 
NOAA logo - Select to go to the NOAA homepage National Weather Service
 Headquarters Office   NWS logo
NWS Office of the Chief Information Officer/Telecommunication Operations Center
 
   

Current Weather Conditions:
Medan / Polonia, Indonesia

(WIMM) 03-34N 098-41E 25M

Conditions at

2020.08.13 0600 UTC
Wind from the ENE (060 degrees) at 12 MPH (10 KT) (direction variable)
Visibility greater than 7 mile(s)
Sky conditions partly cloudy
Temperature 89 F (32 C)
Heat index 102.9 F (39.4 C)
Dew Point 78 F (26 C)
Relative Humidity 70%
Pressure (altimeter) 29.77 in. Hg (1008 hPa)
ob WIMM 130600Z 06010KT 040V100 9999 SCT017 32/26 Q1008 NOSIG METAR WAAA 130600Z 30006KT 220V360 9999 FEW020 34/23 Q1008 NOSIG

24 Hour Summary

Time
EDT (UTC)
Temperature
F (C)
Dew Point
F (C)
Pressure
Inches (hPa)
Wind
MPH
Weather
Latest 2 AM (6) Aug 13 89 (32) 78 (26) 29.77 (1008) ENE 12
1 AM (5) Aug 13 89 (32) 77 (25) 29.80 (1009) ENE 12
Midnight (4) Aug 13 87 (31) 77 (25) 29.80 (1009) ESE 8
11 PM (3) Aug 12 87 (31) 77 (25) 29.83 (1010) ESE 9
10 PM (2) Aug 12 84 (29) 77 (25) 29.83 (1010) ESE 10
9 PM (1) Aug 12 82 (28) 77 (25) 29.83 (1010) SE 7
8 PM (0) Aug 12 78 (26) 77 (25) 29.83 (1010) SSE 5 haze
7 PM (23) Aug 12 77 (25) 77 (25) 29.80 (1009) SE 3 mist
6 PM (22) Aug 12 77 (25) 77 (25) 29.77 (1008) SE 3 mist
5 PM (21) Aug 12 77 (25) 77 (25) 29.80 (1009) ESE 5 mist
4 PM (20) No Data
3 PM (19) No Data
2 PM (18) Aug 12 78 (26) 77 (25) 29.83 (1010) S 6
1 PM (17) Aug 12 78 (26) 77 (25) 29.85 (1011) SE 9
Noon (16) Aug 12 78 (26) 77 (25) 29.88 (1012) SE 5
11 AM (15) Aug 12 78 (26) 77 (25) 29.88 (1012) S 6
10 AM (14) Aug 12 80 (27) 77 (25) 29.85 (1011) SSE 7
9 AM (13) Aug 12 78 (26) 77 (25) 29.83 (1010) SE 3
8 AM (12) Aug 12 80 (27) 77 (25) 29.80 (1009) ESE 5
7 AM (11) Aug 12 80 (27) 77 (25) 29.77 (1008) ENE 6
6 AM (10) Aug 12 82 (28) 77 (25) 29.74 (1007) ENE 6
5 AM (9) Aug 12 82 (28) 77 (25) 29.77 (1008) E 5
4 AM (8) Aug 12 80 (27) 77 (25) 29.77 (1008) SSE 5
Oldest 3 AM (7) Aug 12 80 (27) 77 (25) 29.77 (1008) ESE 8
Time
EDT (UTC)
Temperature
F(C)
Dew Point
F(C)
Pressure
Inches(hPa)
Wind
(MPH)
Weather

The information presented here is taken from products produced by the U.S. National Weather Service and other national and international agencies




US Dept of Commerce
National Oceanic and Atmospheric Administration
National Weather Service
1325 East West Highway
Silver Spring, MD 20910
Page Author: NWS Internet Services Team
Disclaimer
Feedback
Privacy Notice
Credits